sensor_id;sensor_type;location;lat;lon;timestamp;temperature;humidity
39665;DHT22;26679;50.872;4.332;2023-02-01T00:00:58;8.40;99.90
39665;DHT22;26679;50.872;4.332;2023-02-01T00:03:23;8.30;99.90
39665;DHT22;26679;50.872;4.332;2023-02-01T00:05:57;8.30;99.90
39665;DHT22;26679;50.872;4.332;2023-02-01T00:08:23;8.30;99.90
39665;DHT22;26679;50.872;4.332;2023-02-01T00:10:48;8.40;99.90
39665;DHT22;26679;50.872;4.332;2023-02-01T00:13:14;8.30;99.90
39665;DHT22;26679;50.872;4.332;2023-02-01T00:15:39;8.30;99.90
39665;DHT22;26679;50.872;4.332;2023-02-01T00:18:05;8.50;99.90
39665;DHT22;26679;50.872;4.332;2023-02-01T00:20:30;8.20;99.90
39665;DHT22;26679;50.872;4.332;2023-02-01T00:22:56;8.30;99.90
39665;DHT22;26679;50.872;4.332;2023-02-01T00:25:21;8.20;99.90
39665;DHT22;26679;50.872;4.332;2023-02-01T00:27:50;8.10;99.90
39665;DHT22;26679;50.872;4.332;2023-02-01T00:30:16;8.10;99.90
39665;DHT22;26679;50.872;4.332;2023-02-01T00:32:42;8.10;99.90
39665;DHT22;26679;50.872;4.332;2023-02-01T00:35:08;8.10;99.90
39665;DHT22;26679;50.872;4.332;2023-02-01T00:37:34;8.10;99.90
39665;DHT22;26679;50.872;4.332;2023-02-01T00:40:00;8.10;99.90
39665;DHT22;26679;50.872;4.332;2023-02-01T00:42:25;8.20;99.90
39665;DHT22;26679;50.872;4.332;2023-02-01T00:44:51;8.20;99.90
39665;DHT22;26679;50.872;4.332;2023-02-01T00:47:16;8.20;99.90
39665;DHT22;26679;50.872;4.332;2023-02-01T00:49:42;8.40;99.90
39665;DHT22;26679;50.872;4.332;2023-02-01T00:52:07;8.20;99.90
39665;DHT22;26679;50.872;4.332;2023-02-01T00:54:33;8.20;99.90
39665;DHT22;26679;50.872;4.332;2023-02-01T00:56:59;8.20;99.90
39665;DHT22;26679;50.872;4.332;2023-02-01T00:59:24;8.20;99.90
39665;DHT22;26679;50.872;4.332;2023-02-01T01:01:50;8.20;99.90
39665;DHT22;26679;50.872;4.332;2023-02-01T01:04:15;8.30;99.90
39665;DHT22;26679;50.872;4.332;2023-02-01T01:06:41;8.20;99.90
39665;DHT22;26679;50.872;4.332;2023-02-01T01:09:07;8.10;99.90
39665;DHT22;26679;50.872;4.332;2023-02-01T01:11:34;8.80;99.90
39665;DHT22;26679;50.872;4.332;2023-02-01T01:14:00;8.10;99.90
39665;DHT22;26679;50.872;4.332;2023-02-01T01:16:26;8.10;99.90
39665;DHT22;26679;50.872;4.332;2023-02-01T01:18:52;8.10;99.90
39665;DHT22;26679;50.872;4.332;2023-02-01T01:21:18;8.00;99.90
39665;DHT22;26679;50.872;4.332;2023-02-01T01:23:44;8.10;99.90
39665;DHT22;26679;50.872;4.332;2023-02-01T01:26:16;8.00;99.90
39665;DHT22;26679;50.872;4.332;2023-02-01T01:28:43;8.10;99.90
39665;DHT22;26679;50.872;4.332;2023-02-01T01:31:09;8.00;99.90
39665;DHT22;26679;50.872;4.332;2023-02-01T01:33:35;8.00;99.90
39665;DHT22;26679;50.872;4.332;2023-02-01T01:36:01;8.10;99.90
39665;DHT22;26679;50.872;4.332;2023-02-01T01:38:26;8.20;99.90
39665;DHT22;26679;50.872;4.332;2023-02-01T01:40:52;8.20;99.90
39665;DHT22;26679;50.872;4.332;2023-02-01T01:43:18;8.20;99.90
39665;DHT22;26679;50.872;4.332;2023-02-01T01:45:48;8.10;99.90
39665;DHT22;26679;50.872;4.332;2023-02-01T01:50:40;8.10;99.90
39665;DHT22;26679;50.872;4.332;2023-02-01T01:53:08;8.20;99.90
39665;DHT22;26679;50.872;4.332;2023-02-01T01:55:37;8.10;99.90
39665;DHT22;26679;50.872;4.332;2023-02-01T01:58:08;8.10;99.90
39665;DHT22;26679;50.872;4.332;2023-02-01T02:00:35;8.10;99.90
39665;DHT22;26679;50.872;4.332;2023-02-01T02:03:03;8.10;99.90
39665;DHT22;26679;50.872;4.332;2023-02-01T02:05:30;8.40;99.90
39665;DHT22;26679;50.872;4.332;2023-02-01T02:07:57;8.20;99.90
39665;DHT22;26679;50.872;4.332;2023-02-01T02:12:58;8.10;99.90
39665;DHT22;26679;50.872;4.332;2023-02-01T02:15:24;8.20;99.90
39665;DHT22;26679;50.872;4.332;2023-02-01T02:17:55;8.10;99.90
39665;DHT22;26679;50.872;4.332;2023-02-01T02:20:35;8.10;99.90
39665;DHT22;26679;50.872;4.332;2023-02-01T02:23:15;7.90;99.90
39665;DHT22;26679;50.872;4.332;2023-02-01T02:36:01;8.10;99.90
39665;DHT22;26679;50.872;4.332;2023-02-01T02:38:37;8.10;99.90
39665;DHT22;26679;50.872;4.332;2023-02-01T02:43:39;8.00;99.90
39665;DHT22;26679;50.872;4.332;2023-02-01T02:46:28;8.00;99.90
39665;DHT22;26679;50.872;4.332;2023-02-01T02:54:21;8.10;99.90
39665;DHT22;26679;50.872;4.332;2023-02-01T02:56:59;8.00;99.90
39665;DHT22;26679;50.872;4.332;2023-02-01T02:59:37;8.10;99.90
39665;DHT22;26679;50.872;4.332;2023-02-01T03:02:13;8.20;99.90
39665;DHT22;26679;50.872;4.332;2023-02-01T03:04:53;8.00;99.90
39665;DHT22;26679;50.872;4.332;2023-02-01T03:09:59;7.90;99.90
39665;DHT22;26679;50.872;4.332;2023-02-01T03:12:29;7.80;99.90
39665;DHT22;26679;50.872;4.332;2023-02-01T03:15:07;7.70;99.90
39665;DHT22;26679;50.872;4.332;2023-02-01T03:17:35;7.80;99.90
39665;DHT22;26679;50.872;4.332;2023-02-01T03:20:04;7.90;99.90
39665;DHT22;26679;50.872;4.332;2023-02-01T03:22:31;8.00;99.90
39665;DHT22;26679;50.872;4.332;2023-02-01T03:25:10;7.90;99.90
39665;DHT22;26679;50.872;4.332;2023-02-01T03:32:38;7.80;99.90
39665;DHT22;26679;50.872;4.332;2023-02-01T03:35:16;7.60;99.90
39665;DHT22;26679;50.872;4.332;2023-02-01T03:37:41;7.70;99.90
39665;DHT22;26679;50.872;4.332;2023-02-01T03:40:07;7.60;99.90
39665;DHT22;26679;50.872;4.332;2023-02-01T03:42:35;7.50;99.90
39665;DHT22;26679;50.872;4.332;2023-02-01T03:47:33;7.60;99.90
39665;DHT22;26679;50.872;4.332;2023-02-01T03:50:04;7.60;99.90
39665;DHT22;26679;50.872;4.332;2023-02-01T03:52:33;7.60;99.90
39665;DHT22;26679;50.872;4.332;2023-02-01T03:55:00;7.50;99.90
39665;DHT22;26679;50.872;4.332;2023-02-01T03:57:27;7.50;99.90
39665;DHT22;26679;50.872;4.332;2023-02-01T03:59:53;7.50;99.90
39665;DHT22;26679;50.872;4.332;2023-02-01T04:02:19;7.50;99.90
39665;DHT22;26679;50.872;4.332;2023-02-01T04:04:44;7.50;99.90
39665;DHT22;26679;50.872;4.332;2023-02-01T04:07:10;7.50;99.90
39665;DHT22;26679;50.872;4.332;2023-02-01T04:09:36;7.40;99.90
39665;DHT22;26679;50.872;4.332;2023-02-01T04:12:01;7.40;99.90
39665;DHT22;26679;50.872;4.332;2023-02-01T04:14:27;7.40;99.90
39665;DHT22;26679;50.872;4.332;2023-02-01T04:16:53;7.40;99.90
39665;DHT22;26679;50.872;4.332;2023-02-01T04:19:18;7.30;99.90
39665;DHT22;26679;50.872;4.332;2023-02-01T04:21:44;7.30;99.90
39665;DHT22;26679;50.872;4.332;2023-02-01T04:24:09;7.20;99.90
39665;DHT22;26679;50.872;4.332;2023-02-01T04:26:35;7.20;99.90
39665;DHT22;26679;50.872;4.332;2023-02-01T04:29:01;8.00;99.90
39665;DHT22;26679;50.872;4.332;2023-02-01T04:31:26;7.30;99.90
39665;DHT22;26679;50.872;4.332;2023-02-01T04:33:53;7.00;99.90
39665;DHT22;26679;50.872;4.332;2023-02-01T04:36:19;7.00;99.90
39665;DHT22;26679;50.872;4.332;2023-02-01T04:38:51;7.40;99.90
39665;DHT22;26679;50.872;4.332;2023-02-01T04:41:16;7.00;99.90
39665;DHT22;26679;50.872;4.332;2023-02-01T04:43:46;7.00;99.90
39665;DHT22;26679;50.872;4.332;2023-02-01T04:46:11;8.00;99.90
39665;DHT22;26679;50.872;4.332;2023-02-01T04:48:37;6.90;99.90
39665;DHT22;26679;50.872;4.332;2023-02-01T04:51:02;6.90;99.90
39665;DHT22;26679;50.872;4.332;2023-02-01T04:53:28;6.90;99.90
39665;DHT22;26679;50.872;4.332;2023-02-01T04:55:55;7.00;99.90
39665;DHT22;26679;50.872;4.332;2023-02-01T04:58:20;6.80;99.90
39665;DHT22;26679;50.872;4.332;2023-02-01T05:00:46;6.80;99.90
39665;DHT22;26679;50.872;4.332;2023-02-01T05:03:11;6.80;99.90
39665;DHT22;26679;50.872;4.332;2023-02-01T05:05:37;6.80;99.90
39665;DHT22;26679;50.872;4.332;2023-02-01T05:08:02;6.70;99.90
39665;DHT22;26679;50.872;4.332;2023-02-01T05:10:28;6.70;99.90
39665;DHT22;26679;50.872;4.332;2023-02-01T05:12:53;6.70;99.90
39665;DHT22;26679;50.872;4.332;2023-02-01T05:15:29;6.60;99.90
39665;DHT22;26679;50.872;4.332;2023-02-01T05:17:55;6.60;99.90
39665;DHT22;26679;50.872;4.332;2023-02-01T05:20:20;6.60;99.90
39665;DHT22;26679;50.872;4.332;2023-02-01T05:22:46;6.60;99.90
39665;DHT22;26679;50.872;4.332;2023-02-01T05:25:11;6.60;99.90
39665;DHT22;26679;50.872;4.332;2023-02-01T05:27:37;7.90;99.90
39665;DHT22;26679;50.872;4.332;2023-02-01T05:30:03;6.50;99.90
39665;DHT22;26679;50.872;4.332;2023-02-01T05:32:29;6.30;99.90
39665;DHT22;26679;50.872;4.332;2023-02-01T05:34:54;6.40;99.90
39665;DHT22;26679;50.872;4.332;2023-02-01T05:37:22;6.90;99.90
39665;DHT22;26679;50.872;4.332;2023-02-01T05:39:47;6.40;99.90
39665;DHT22;26679;50.872;4.332;2023-02-01T05:42:13;8.00;99.90
39665;DHT22;26679;50.872;4.332;2023-02-01T05:44:38;8.20;99.90
39665;DHT22;26679;50.872;4.332;2023-02-01T05:47:04;6.30;99.90
39665;DHT22;26679;50.872;4.332;2023-02-01T05:49:29;6.20;99.90
39665;DHT22;26679;50.872;4.332;2023-02-01T05:51:55;6.20;99.90
39665;DHT22;26679;50.872;4.332;2023-02-01T05:54:20;6.20;99.90
39665;DHT22;26679;50.872;4.332;2023-02-01T05:56:46;6.20;99.90
39665;DHT22;26679;50.872;4.332;2023-02-01T05:59:11;6.10;99.90
39665;DHT22;26679;50.872;4.332;2023-02-01T06:01:37;6.10;99.90
39665;DHT22;26679;50.872;4.332;2023-02-01T06:04:02;6.10;99.90
39665;DHT22;26679;50.872;4.332;2023-02-01T06:09:03;6.00;99.90
39665;DHT22;26679;50.872;4.332;2023-02-01T06:11:29;6.00;99.90
39665;DHT22;26679;50.872;4.332;2023-02-01T06:13:55;6.00;99.90
39665;DHT22;26679;50.872;4.332;2023-02-01T06:16:21;5.90;99.90
39665;DHT22;26679;50.872;4.332;2023-02-01T06:18:46;5.90;99.90
39665;DHT22;26679;50.872;4.332;2023-02-01T06:21:12;5.90;99.90
39665;DHT22;26679;50.872;4.332;2023-02-01T06:23:39;5.90;99.90
39665;DHT22;26679;50.872;4.332;2023-02-01T06:26:06;7.30;99.90
39665;DHT22;26679;50.872;4.332;2023-02-01T06:28:33;7.00;99.90
39665;DHT22;26679;50.872;4.332;2023-02-01T06:31:02;6.00;99.90
39665;DHT22;26679;50.872;4.332;2023-02-01T06:33:28;6.00;99.90
39665;DHT22;26679;50.872;4.332;2023-02-01T06:35:57;5.90;99.90
39665;DHT22;26679;50.872;4.332;2023-02-01T06:38:24;6.00;99.90
39665;DHT22;26679;50.872;4.332;2023-02-01T06:40:53;5.90;99.90
39665;DHT22;26679;50.872;4.332;2023-02-01T06:43:19;5.90;99.90
39665;DHT22;26679;50.872;4.332;2023-02-01T06:45:44;5.00;99.90
39665;DHT22;26679;50.872;4.332;2023-02-01T06:48:11;5.90;99.90
39665;DHT22;26679;50.872;4.332;2023-02-01T06:50:37;5.90;99.90
39665;DHT22;26679;50.872;4.332;2023-02-01T06:53:02;6.00;99.90
39665;DHT22;26679;50.872;4.332;2023-02-01T06:55:28;4.80;99.90
39665;DHT22;26679;50.872;4.332;2023-02-01T06:57:54;5.90;99.90
39665;DHT22;26679;50.872;4.332;2023-02-01T07:00:20;6.40;99.90
39665;DHT22;26679;50.872;4.332;2023-02-01T07:02:46;5.90;99.90
39665;DHT22;26679;50.872;4.332;2023-02-01T07:05:12;6.00;99.90
39665;DHT22;26679;50.872;4.332;2023-02-01T07:07:37;5.90;99.90
39665;DHT22;26679;50.872;4.332;2023-02-01T07:10:03;6.00;99.90
39665;DHT22;26679;50.872;4.332;2023-02-01T07:12:28;5.90;99.90
39665;DHT22;26679;50.872;4.332;2023-02-01T07:14:57;5.80;99.90
39665;DHT22;26679;50.872;4.332;2023-02-01T07:17:22;7.50;99.90
39665;DHT22;26679;50.872;4.332;2023-02-01T07:19:48;5.90;99.90
39665;DHT22;26679;50.872;4.332;2023-02-01T07:22:17;5.90;99.90
39665;DHT22;26679;50.872;4.332;2023-02-01T07:24:42;5.90;99.90
39665;DHT22;26679;50.872;4.332;2023-02-01T07:27:09;5.80;99.90
39665;DHT22;26679;50.872;4.332;2023-02-01T07:29:35;5.80;99.90
39665;DHT22;26679;50.872;4.332;2023-02-01T07:32:00;5.80;99.90
39665;DHT22;26679;50.872;4.332;2023-02-01T07:34:27;5.80;99.90
39665;DHT22;26679;50.872;4.332;2023-02-01T07:36:53;5.90;99.90
39665;DHT22;26679;50.872;4.332;2023-02-01T07:39:18;6.00;99.90
39665;DHT22;26679;50.872;4.332;2023-02-01T07:41:45;5.90;99.90
39665;DHT22;26679;50.872;4.332;2023-02-01T08:10:04;6.40;99.90
39665;DHT22;26679;50.872;4.332;2023-02-01T08:15:19;6.40;99.90
39665;DHT22;26679;50.872;4.332;2023-02-01T08:17:52;6.30;99.90
39665;DHT22;26679;50.872;4.332;2023-02-01T08:20:30;6.40;99.90
39665;DHT22;26679;50.872;4.332;2023-02-01T08:22:56;6.50;99.90
39665;DHT22;26679;50.872;4.332;2023-02-01T08:25:22;6.40;99.90
39665;DHT22;26679;50.872;4.332;2023-02-01T11:32:16;11.20;99.90
39665;DHT22;26679;50.872;4.332;2023-02-01T11:34:48;11.00;99.90
39665;DHT22;26679;50.872;4.332;2023-02-01T11:37:16;10.90;99.90
39665;DHT22;26679;50.872;4.332;2023-02-01T11:39:43;11.60;99.90
39665;DHT22;26679;50.872;4.332;2023-02-01T11:42:18;11.00;99.90
39665;DHT22;26679;50.872;4.332;2023-02-01T11:44:45;10.60;99.90
39665;DHT22;26679;50.872;4.332;2023-02-01T11:49:48;10.50;99.90
39665;DHT22;26679;50.872;4.332;2023-02-01T11:52:18;10.50;99.90
39665;DHT22;26679;50.872;4.332;2023-02-01T11:57:39;10.40;99.90
39665;DHT22;26679;50.872;4.332;2023-02-01T12:00:14;10.30;99.90
39665;DHT22;26679;50.872;4.332;2023-02-01T12:05:41;10.70;99.90
39665;DHT22;26679;50.872;4.332;2023-02-01T12:24:04;10.90;99.90
39665;DHT22;26679;50.872;4.332;2023-02-01T12:31:54;10.90;99.90
39665;DHT22;26679;50.872;4.332;2023-02-01T12:42:07;11.10;99.90
39665;DHT22;26679;50.872;4.332;2023-02-01T12:44:37;11.30;99.90
39665;DHT22;26679;50.872;4.332;2023-02-01T12:47:12;11.40;99.90
39665;DHT22;26679;50.872;4.332;2023-02-01T12:55:00;11.50;99.90
39665;DHT22;26679;50.872;4.332;2023-02-01T12:57:27;11.40;99.90
39665;DHT22;26679;50.872;4.332;2023-02-01T13:00:00;11.50;99.90
39665;DHT22;26679;50.872;4.332;2023-02-01T13:02:32;11.60;99.90
39665;DHT22;26679;50.872;4.332;2023-02-01T13:10:16;11.80;99.90
39665;DHT22;26679;50.872;4.332;2023-02-01T13:15:26;11.90;99.90
39665;DHT22;26679;50.872;4.332;2023-02-01T13:17:54;12.00;99.90
39665;DHT22;26679;50.872;4.332;2023-02-01T13:20:22;12.20;99.90
39665;DHT22;26679;50.872;4.332;2023-02-01T13:22:54;12.10;99.90
39665;DHT22;26679;50.872;4.332;2023-02-01T13:27:46;11.90;99.90
39665;DHT22;26679;50.872;4.332;2023-02-01T13:35:28;12.10;99.90
39665;DHT22;26679;50.872;4.332;2023-02-01T13:40:38;12.00;99.90
39665;DHT22;26679;50.872;4.332;2023-02-01T13:43:26;11.80;99.90
39665;DHT22;26679;50.872;4.332;2023-02-01T13:45:51;11.80;99.90
39665;DHT22;26679;50.872;4.332;2023-02-01T13:50:55;11.80;99.90
39665;DHT22;26679;50.872;4.332;2023-02-01T13:56:08;11.80;99.90
39665;DHT22;26679;50.872;4.332;2023-02-01T13:58:36;11.80;99.90
39665;DHT22;26679;50.872;4.332;2023-02-01T14:04:44;12.00;99.90
39665;DHT22;26679;50.872;4.332;2023-02-01T14:11:39;12.10;99.90
39665;DHT22;26679;50.872;4.332;2023-02-01T14:16:43;12.40;99.90
39665;DHT22;26679;50.872;4.332;2023-02-01T14:24:21;12.40;99.90
39665;DHT22;26679;50.872;4.332;2023-02-01T14:26:49;12.40;99.90
39665;DHT22;26679;50.872;4.332;2023-02-01T14:34:15;11.90;99.90
39665;DHT22;26679;50.872;4.332;2023-02-01T14:36:43;11.80;99.90
39665;DHT22;26679;50.872;4.332;2023-02-01T14:39:19;11.70;99.90
39665;DHT22;26679;50.872;4.332;2023-02-01T14:41:44;11.50;99.90
39665;DHT22;26679;50.872;4.332;2023-02-01T14:49:13;11.30;99.90
39665;DHT22;26679;50.872;4.332;2023-02-01T14:51:38;11.30;99.90
39665;DHT22;26679;50.872;4.332;2023-02-01T14:54:04;11.20;99.90
39665;DHT22;26679;50.872;4.332;2023-02-01T14:56:30;11.30;99.90
39665;DHT22;26679;50.872;4.332;2023-02-01T15:01:38;11.30;99.90
39665;DHT22;26679;50.872;4.332;2023-02-01T15:06:44;11.30;99.90
39665;DHT22;26679;50.872;4.332;2023-02-01T15:09:17;11.20;99.90
39665;DHT22;26679;50.872;4.332;2023-02-01T15:14:21;11.00;99.90
39665;DHT22;26679;50.872;4.332;2023-02-01T15:16:47;10.90;99.90
39665;DHT22;26679;50.872;4.332;2023-02-01T15:19:19;10.90;99.90
39665;DHT22;26679;50.872;4.332;2023-02-01T15:21:47;10.90;99.90
39665;DHT22;26679;50.872;4.332;2023-02-01T15:24:14;10.90;99.90
39665;DHT22;26679;50.872;4.332;2023-02-01T15:26:40;10.80;99.90
39665;DHT22;26679;50.872;4.332;2023-02-01T15:29:08;10.90;99.90
39665;DHT22;26679;50.872;4.332;2023-02-01T15:31:39;10.80;99.90
39665;DHT22;26679;50.872;4.332;2023-02-01T15:34:08;10.70;99.90
39665;DHT22;26679;50.872;4.332;2023-02-01T15:36:35;10.60;99.90
39665;DHT22;26679;50.872;4.332;2023-02-01T15:41:47;10.90;99.90
39665;DHT22;26679;50.872;4.332;2023-02-01T15:46:43;10.70;99.90
39665;DHT22;26679;50.872;4.332;2023-02-01T15:51:46;10.70;99.90
39665;DHT22;26679;50.872;4.332;2023-02-01T15:54:13;11.80;99.90
39665;DHT22;26679;50.872;4.332;2023-02-01T15:56:44;10.50;99.90
39665;DHT22;26679;50.872;4.332;2023-02-01T15:59:17;10.80;99.90
39665;DHT22;26679;50.872;4.332;2023-02-01T16:01:43;10.70;99.90
39665;DHT22;26679;50.872;4.332;2023-02-01T16:04:15;11.90;99.90
39665;DHT22;26679;50.872;4.332;2023-02-01T16:09:14;10.70;99.90
39665;DHT22;26679;50.872;4.332;2023-02-01T16:11:46;10.70;99.90
39665;DHT22;26679;50.872;4.332;2023-02-01T16:14:12;9.90;99.90
39665;DHT22;26679;50.872;4.332;2023-02-01T16:16:38;10.50;99.90
39665;DHT22;26679;50.872;4.332;2023-02-01T16:19:04;11.30;99.90
39665;DHT22;26679;50.872;4.332;2023-02-01T16:21:29;9.30;99.90
39665;DHT22;26679;50.872;4.332;2023-02-01T16:23:55;10.60;99.90
39665;DHT22;26679;50.872;4.332;2023-02-01T16:26:20;9.10;99.90
39665;DHT22;26679;50.872;4.332;2023-02-01T16:28:46;10.70;99.90
39665;DHT22;26679;50.872;4.332;2023-02-01T16:31:16;10.40;99.90
39665;DHT22;26679;50.872;4.332;2023-02-01T16:33:51;10.50;99.90
39665;DHT22;26679;50.872;4.332;2023-02-01T16:36:17;10.40;99.90
39665;DHT22;26679;50.872;4.332;2023-02-01T16:38:42;10.50;99.90
39665;DHT22;26679;50.872;4.332;2023-02-01T16:41:15;10.40;99.90
39665;DHT22;26679;50.872;4.332;2023-02-01T16:43:41;10.40;99.90
39665;DHT22;26679;50.872;4.332;2023-02-01T16:46:12;10.30;99.90
39665;DHT22;26679;50.872;4.332;2023-02-01T16:48:38;10.20;99.90
39665;DHT22;26679;50.872;4.332;2023-02-01T16:51:09;10.20;99.90
39665;DHT22;26679;50.872;4.332;2023-02-01T16:53:35;10.20;99.90
39665;DHT22;26679;50.872;4.332;2023-02-01T16:56:01;10.10;99.90
39665;DHT22;26679;50.872;4.332;2023-02-01T16:58:30;11.20;99.90
39665;DHT22;26679;50.872;4.332;2023-02-01T17:00:55;10.10;99.90
39665;DHT22;26679;50.872;4.332;2023-02-01T17:03:21;10.10;99.90
39665;DHT22;26679;50.872;4.332;2023-02-01T17:05:51;10.10;99.90
39665;DHT22;26679;50.872;4.332;2023-02-01T17:08:19;10.30;99.90
39665;DHT22;26679;50.872;4.332;2023-02-01T17:10:47;10.10;99.90
39665;DHT22;26679;50.872;4.332;2023-02-01T17:13:13;10.10;99.90
39665;DHT22;26679;50.872;4.332;2023-02-01T17:15:40;10.60;99.90
39665;DHT22;26679;50.872;4.332;2023-02-01T17:18:09;10.20;99.90
39665;DHT22;26679;50.872;4.332;2023-02-01T17:20:39;9.90;99.90
39665;DHT22;26679;50.872;4.332;2023-02-01T17:23:05;9.80;99.90
39665;DHT22;26679;50.872;4.332;2023-02-01T17:25:31;9.70;99.90
39665;DHT22;26679;50.872;4.332;2023-02-01T17:27:56;8.10;99.90
39665;DHT22;26679;50.872;4.332;2023-02-01T17:30:22;9.50;99.90
39665;DHT22;26679;50.872;4.332;2023-02-01T17:32:48;10.40;99.90
39665;DHT22;26679;50.872;4.332;2023-02-01T17:35:19;9.70;99.90
39665;DHT22;26679;50.872;4.332;2023-02-01T17:37:45;9.50;99.90
39665;DHT22;26679;50.872;4.332;2023-02-01T17:40:11;8.80;99.90
39665;DHT22;26679;50.872;4.332;2023-02-01T17:42:37;8.50;99.90
39665;DHT22;26679;50.872;4.332;2023-02-01T17:47:39;9.30;99.90
39665;DHT22;26679;50.872;4.332;2023-02-01T17:50:05;9.20;99.90
39665;DHT22;26679;50.872;4.332;2023-02-01T17:52:31;9.30;99.90
39665;DHT22;26679;50.872;4.332;2023-02-01T17:55:00;11.00;99.90
39665;DHT22;26679;50.872;4.332;2023-02-01T17:57:28;9.20;99.90
39665;DHT22;26679;50.872;4.332;2023-02-01T17:59:53;9.10;99.90
39665;DHT22;26679;50.872;4.332;2023-02-01T18:02:20;9.30;99.90
39665;DHT22;26679;50.872;4.332;2023-02-01T18:04:46;9.30;99.90
39665;DHT22;26679;50.872;4.332;2023-02-01T18:07:12;9.50;99.90
39665;DHT22;26679;50.872;4.332;2023-02-01T18:09:38;9.50;99.90
39665;DHT22;26679;50.872;4.332;2023-02-01T18:12:03;9.60;99.90
39665;DHT22;26679;50.872;4.332;2023-02-01T18:14:29;9.10;99.90
39665;DHT22;26679;50.872;4.332;2023-02-01T18:16:55;10.40;99.90
39665;DHT22;26679;50.872;4.332;2023-02-01T18:19:21;9.80;99.90
39665;DHT22;26679;50.872;4.332;2023-02-01T18:21:46;9.80;99.90
39665;DHT22;26679;50.872;4.332;2023-02-01T18:24:13;9.60;99.90
39665;DHT22;26679;50.872;4.332;2023-02-01T18:26:39;8.80;99.90
39665;DHT22;26679;50.872;4.332;2023-02-01T18:29:05;8.90;99.90
39665;DHT22;26679;50.872;4.332;2023-02-01T18:31:31;9.70;99.90
39665;DHT22;26679;50.872;4.332;2023-02-01T18:33:57;9.70;99.90
39665;DHT22;26679;50.872;4.332;2023-02-01T18:36:23;9.90;99.90
39665;DHT22;26679;50.872;4.332;2023-02-01T18:38:49;9.90;99.90
39665;DHT22;26679;50.872;4.332;2023-02-01T18:41:16;9.70;99.90
39665;DHT22;26679;50.872;4.332;2023-02-01T18:43:42;9.60;99.90
39665;DHT22;26679;50.872;4.332;2023-02-01T18:46:09;9.70;99.90
39665;DHT22;26679;50.872;4.332;2023-02-01T18:48:37;8.90;99.90
39665;DHT22;26679;50.872;4.332;2023-02-01T18:51:03;9.70;99.90
39665;DHT22;26679;50.872;4.332;2023-02-01T18:53:29;9.60;99.90
39665;DHT22;26679;50.872;4.332;2023-02-01T18:55:55;9.60;99.90
39665;DHT22;26679;50.872;4.332;2023-02-01T18:58:21;8.40;99.90
39665;DHT22;26679;50.872;4.332;2023-02-01T19:00:50;9.60;99.90
39665;DHT22;26679;50.872;4.332;2023-02-01T19:03:17;10.10;99.90
39665;DHT22;26679;50.872;4.332;2023-02-01T19:05:42;9.70;99.90
39665;DHT22;26679;50.872;4.332;2023-02-01T19:08:08;9.00;99.90
39665;DHT22;26679;50.872;4.332;2023-02-01T19:10:34;9.60;99.90
39665;DHT22;26679;50.872;4.332;2023-02-01T19:13:03;9.60;99.90
39665;DHT22;26679;50.872;4.332;2023-02-01T19:15:30;9.60;99.90
39665;DHT22;26679;50.872;4.332;2023-02-01T19:17:59;9.60;99.90
39665;DHT22;26679;50.872;4.332;2023-02-01T19:20:25;9.50;99.90
39665;DHT22;26679;50.872;4.332;2023-02-01T19:22:52;9.30;99.90
39665;DHT22;26679;50.872;4.332;2023-02-01T19:25:25;9.70;99.90
39665;DHT22;26679;50.872;4.332;2023-02-01T19:27:56;9.70;99.90
39665;DHT22;26679;50.872;4.332;2023-02-01T19:30:25;9.70;99.90
39665;DHT22;26679;50.872;4.332;2023-02-01T19:32:57;8.80;99.90
39665;DHT22;26679;50.872;4.332;2023-02-01T19:35:26;9.60;99.90
39665;DHT22;26679;50.872;4.332;2023-02-01T19:37:57;9.60;99.90
39665;DHT22;26679;50.872;4.332;2023-02-01T19:40:29;9.60;99.90
39665;DHT22;26679;50.872;4.332;2023-02-01T19:43:00;9.50;99.90
39665;DHT22;26679;50.872;4.332;2023-02-01T19:45:34;9.40;99.90
39665;DHT22;26679;50.872;4.332;2023-02-01T19:48:08;9.50;99.90
39665;DHT22;26679;50.872;4.332;2023-02-01T19:50:37;9.50;99.90
39665;DHT22;26679;50.872;4.332;2023-02-01T19:53:04;9.60;99.90
39665;DHT22;26679;50.872;4.332;2023-02-01T19:55:30;9.20;99.90
39665;DHT22;26679;50.872;4.332;2023-02-01T19:57:56;9.60;99.90
39665;DHT22;26679;50.872;4.332;2023-02-01T20:00:21;9.50;99.90
39665;DHT22;26679;50.872;4.332;2023-02-01T20:02:47;9.50;99.90
39665;DHT22;26679;50.872;4.332;2023-02-01T20:05:13;9.50;99.90
39665;DHT22;26679;50.872;4.332;2023-02-01T20:07:40;9.40;99.90
39665;DHT22;26679;50.872;4.332;2023-02-01T20:10:06;9.40;99.90
39665;DHT22;26679;50.872;4.332;2023-02-01T20:12:32;9.50;99.90
39665;DHT22;26679;50.872;4.332;2023-02-01T20:14:58;9.50;99.90
39665;DHT22;26679;50.872;4.332;2023-02-01T20:17:24;9.50;99.90
39665;DHT22;26679;50.872;4.332;2023-02-01T20:19:50;9.60;99.90
39665;DHT22;26679;50.872;4.332;2023-02-01T20:22:15;9.70;99.90
39665;DHT22;26679;50.872;4.332;2023-02-01T20:24:41;9.60;99.90
39665;DHT22;26679;50.872;4.332;2023-02-01T20:27:07;9.60;99.90
39665;DHT22;26679;50.872;4.332;2023-02-01T20:29:34;9.60;99.90
39665;DHT22;26679;50.872;4.332;2023-02-01T20:32:06;9.50;99.90
39665;DHT22;26679;50.872;4.332;2023-02-01T20:34:31;10.00;99.90
39665;DHT22;26679;50.872;4.332;2023-02-01T20:36:57;9.50;99.90
39665;DHT22;26679;50.872;4.332;2023-02-01T20:39:22;9.50;99.90
39665;DHT22;26679;50.872;4.332;2023-02-01T20:41:48;9.60;99.90
39665;DHT22;26679;50.872;4.332;2023-02-01T20:44:13;9.60;99.90
39665;DHT22;26679;50.872;4.332;2023-02-01T20:46:39;9.60;99.90
39665;DHT22;26679;50.872;4.332;2023-02-01T20:49:04;9.50;99.90
39665;DHT22;26679;50.872;4.332;2023-02-01T20:51:30;9.70;99.90
39665;DHT22;26679;50.872;4.332;2023-02-01T20:53:56;9.60;99.90
39665;DHT22;26679;50.872;4.332;2023-02-01T20:56:21;9.60;99.90
39665;DHT22;26679;50.872;4.332;2023-02-01T20:58:47;9.60;99.90
39665;DHT22;26679;50.872;4.332;2023-02-01T21:01:12;9.50;99.90
39665;DHT22;26679;50.872;4.332;2023-02-01T21:03:38;9.50;99.90
39665;DHT22;26679;50.872;4.332;2023-02-01T21:06:04;9.50;99.90
39665;DHT22;26679;50.872;4.332;2023-02-01T21:08:30;9.50;99.90
39665;DHT22;26679;50.872;4.332;2023-02-01T21:11:00;9.40;99.90
39665;DHT22;26679;50.872;4.332;2023-02-01T21:13:27;9.40;99.90
39665;DHT22;26679;50.872;4.332;2023-02-01T21:15:54;9.50;99.90
39665;DHT22;26679;50.872;4.332;2023-02-01T21:18:20;9.50;99.90
39665;DHT22;26679;50.872;4.332;2023-02-01T21:20:45;9.40;99.90
39665;DHT22;26679;50.872;4.332;2023-02-01T21:23:12;9.40;99.90
39665;DHT22;26679;50.872;4.332;2023-02-01T21:25:38;9.40;99.90
39665;DHT22;26679;50.872;4.332;2023-02-01T21:28:04;9.40;99.90
39665;DHT22;26679;50.872;4.332;2023-02-01T21:30:30;9.40;99.90
39665;DHT22;26679;50.872;4.332;2023-02-01T21:32:57;9.40;99.90
39665;DHT22;26679;50.872;4.332;2023-02-01T21:35:23;9.20;99.90
39665;DHT22;26679;50.872;4.332;2023-02-01T21:37:49;9.30;99.90
39665;DHT22;26679;50.872;4.332;2023-02-01T21:40:15;9.60;99.90
39665;DHT22;26679;50.872;4.332;2023-02-01T21:42:40;9.30;99.90
39665;DHT22;26679;50.872;4.332;2023-02-01T21:45:10;9.40;99.90